Time;durP1;ratioP1;P1;durP2;ratioP2;P2;SDS_P1;SDS_P2;PMS_P1;PMS_P2;Temp;Humidity;BMP_temperature;BMP_pressure;BME280_temperature;BME280_humidity;BME280_pressure;Samples;Min_cycle;Max_cycle;Signal;HPM_P1;HPM_P2
2022/09/11 00:01:06;;;;;;;18.02;16.20;;;15.90;99.90;;;;;;5066934;28;20032;-37
2022/09/11 00:03:32;;;;;;;21.80;17.73;;;15.90;99.90;;;;;;5066360;28;20464;-38
2022/09/11 00:06:03;;;;;;;23.13;19.35;;;15.90;99.90;;;;;;5066544;28;20063;-37
2022/09/11 00:08:30;;;;;;;21.45;17.92;;;15.80;99.90;;;;;;5066303;28;20183;-37
2022/09/11 00:11:11;;;;;;;19.23;16.88;;;15.80;99.90;;;;;;5066893;28;20025;-38
2022/09/11 00:13:38;;;;;;;21.00;17.95;;;15.80;99.90;;;;;;5065657;28;20024;-36
2022/09/11 00:16:06;;;;;;;20.35;17.77;;;15.70;99.90;;;;;;5066096;28;20039;-37
2022/09/11 00:18:35;;;;;;;18.08;16.20;;;15.70;99.90;;;;;;5066128;28;20059;-37
2022/09/11 00:21:03;;;;;;;16.92;15.10;;;15.70;99.90;;;;;;5066156;28;20536;-40
2022/09/11 00:23:29;;;;;;;17.42;14.70;;;15.70;99.90;;;;;;5065632;28;20020;-38
2022/09/11 00:25:54;;;;;;;18.95;15.02;;;15.70;99.90;;;;;;5065162;28;20017;-37
2022/09/11 00:28:23;;;;;;;17.73;15.50;;;15.70;99.90;;;;;;5066232;28;20032;-37
2022/09/11 00:31:06;;;;;;;16.92;14.20;;;15.70;99.90;;;;;;5065658;28;20601;-38
2022/09/11 00:33:33;;;;;;;18.85;15.90;;;15.70;99.90;;;;;;5065405;28;20483;-39
2022/09/11 00:36:15;;;;;;;15.27;13.75;;;15.70;99.90;;;;;;5066202;28;20165;-39
2022/09/11 00:38:41;;;;;;;15.70;13.98;;;15.70;99.90;;;;;;5066235;28;20024;-38
2022/09/11 00:41:16;;;;;;;16.13;13.98;;;15.60;99.90;;;;;;5065220;28;20025;-36
2022/09/11 00:43:56;;;;;;;16.88;14.02;;;15.60;99.90;;;;;;5066133;28;20036;-38
2022/09/11 00:46:39;;;;;;;15.85;13.02;;;15.60;99.90;;;;;;5066333;28;20119;-37
2022/09/11 00:49:25;;;;;;;16.70;14.43;;;15.60;99.90;;;;;;5065538;28;20032;-38
2022/09/11 00:52:01;;;;;;;16.08;14.38;;;15.60;99.90;;;;;;5064627;28;20052;-37
2022/09/11 00:54:31;;;;;;;15.68;13.32;;;15.60;99.90;;;;;;5064924;28;20111;-39
2022/09/11 00:56:59;;;;;;;17.45;14.68;;;15.50;99.90;;;;;;5065523;28;20075;-39
2022/09/11 00:59:27;;;;;;;16.52;14.38;;;15.50;99.90;;;;;;5065539;28;20029;-38
2022/09/11 01:01:53;;;;;;;18.67;15.43;;;15.50;99.90;;;;;;5065269;28;20028;-39
2022/09/11 01:04:20;;;;;;;16.25;14.55;;;15.50;99.90;;;;;;5066231;28;20133;-38
2022/09/11 01:06:46;;;;;;;16.08;14.38;;;15.40;99.90;;;;;;5064581;28;20031;-39
2022/09/11 01:09:12;;;;;;;17.63;14.90;;;15.40;99.90;;;;;;5065013;28;20039;-37
2022/09/11 01:11:59;;;;;;;14.43;12.90;;;15.40;99.90;;;;;;5065664;28;20032;-36
2022/09/11 01:14:51;;;;;;;15.50;13.90;;;15.40;99.90;;;;;;5065418;28;20468;-37
2022/09/11 01:17:44;;;;;;;14.93;13.32;;;15.30;99.90;;;;;;5064644;28;20016;-38
2022/09/11 01:20:35;;;;;;;15.18;13.63;;;15.30;99.90;;;;;;5065125;28;20028;-39
2022/09/11 01:23:16;;;;;;;15.13;13.57;;;15.30;99.90;;;;;;5064625;28;20031;-37
2022/09/11 01:26:09;;;;;;;16.30;14.55;;;15.30;99.90;;;;;;5065469;28;20029;-37
2022/09/11 01:28:42;;;;;;;16.27;14.38;;;15.30;99.90;;;;;;5064034;28;20571;-38
2022/09/11 01:31:14;;;;;;;16.20;13.85;;;15.30;99.90;;;;;;5064570;28;20020;-37
2022/09/11 01:34:13;;;;;;;15.18;13.57;;;15.30;99.90;;;;;;5065152;28;20342;-37
2022/09/11 01:36:46;;;;;;;14.48;12.93;;;15.30;99.90;;;;;;5050270;28;20127;-38
2022/09/11 01:39:16;;;;;;;16.65;14.77;;;15.30;99.90;;;;;;5065302;28;20028;-38
2022/09/11 01:41:54;;;;;;;15.65;14.05;;;15.30;99.90;;;;;;5064504;28;20040;-38
2022/09/11 01:44:28;;;;;;;15.77;14.10;;;15.30;99.90;;;;;;5054903;28;20388;-37
2022/09/11 01:46:54;;;;;;;15.43;13.77;;;15.30;99.90;;;;;;5065242;28;20028;-40
2022/09/11 01:49:43;;;;;;;15.32;13.73;;;15.30;99.90;;;;;;5064741;28;20032;-37
2022/09/11 01:52:17;;;;;;;14.00;12.52;;;15.30;99.90;;;;;;5064126;28;20040;-38
2022/09/11 01:55:04;;;;;;;14.90;13.38;;;15.30;99.90;;;;;;5064611;28;20025;-38
2022/09/11 01:58:05;;;;;;;13.90;12.40;;;15.30;99.90;;;;;;5063820;28;20085;-38
2022/09/11 02:00:35;;;;;;;14.90;13.40;;;15.20;99.90;;;;;;5063992;28;20086;-37
2022/09/11 02:03:07;;;;;;;15.25;12.73;;;15.20;99.90;;;;;;5064430;28;20191;-37
2022/09/11 02:05:42;;;;;;;13.95;12.55;;;15.20;99.90;;;;;;5063425;28;20060;-38
2022/09/11 02:08:38;;;;;;;13.38;12.07;;;15.10;99.90;;;;;;5064608;28;20032;-38
2022/09/11 02:11:10;;;;;;;14.05;12.65;;;15.10;99.90;;;;;;5059102;28;20404;-38
2022/09/11 02:13:45;;;;;;;12.07;10.87;;;15.10;99.90;;;;;;5063526;28;20024;-39
2022/09/11 02:16:20;;;;;;;11.70;10.60;;;15.10;99.90;;;;;;5063732;28;20274;-38
2022/09/11 02:18:57;;;;;;;11.57;10.48;;;15.00;99.90;;;;;;5063193;28;20024;-39
2022/09/11 02:21:23;;;;;;;11.25;10.15;;;15.00;99.90;;;;;;5065008;28;20468;-38
2022/09/11 02:23:49;;;;;;;12.00;10.90;;;15.00;99.90;;;;;;5064056;28;20097;-36
2022/09/11 02:26:17;;;;;;;12.40;11.27;;;14.90;99.90;;;;;;5063894;28;20028;-39
2022/09/11 02:28:43;;;;;;;11.65;10.55;;;14.90;99.90;;;;;;5064254;28;20048;-36
2022/09/11 02:31:09;;;;;;;12.20;11.00;;;14.90;99.90;;;;;;5064327;28;20059;-39
2022/09/11 02:33:36;;;;;;;11.57;10.48;;;14.90;99.90;;;;;;5063948;28;20037;-38
2022/09/11 02:36:31;;;;;;;9.70;8.70;;;14.90;99.90;;;;;;5064843;28;20107;-36
2022/09/11 02:39:24;;;;;;;9.82;8.93;;;14.80;99.90;;;;;;5064207;28;20303;-37
2022/09/11 02:42:03;;;;;;;9.95;8.80;;;14.80;99.90;;;;;;5063827;28;20082;-38
2022/09/11 02:44:39;;;;;;;11.10;10.00;;;14.70;99.90;;;;;;5063639;28;20025;-39
2022/09/11 02:47:16;;;;;;;10.32;9.32;;;14.70;99.90;;;;;;5063646;28;20028;-37
2022/09/11 02:50:08;;;;;;;9.88;8.88;;;14.70;99.90;;;;;;5064215;28;20040;-37
2022/09/11 02:52:44;;;;;;;8.82;7.97;;;14.70;99.90;;;;;;5062248;28;20040;-39
2022/09/11 02:55:30;;;;;;;9.68;8.73;;;14.70;99.90;;;;;;5063379;28;20108;-38
2022/09/11 02:58:20;;;;;;;11.70;10.02;;;14.60;99.90;;;;;;5063690;28;20420;-37
2022/09/11 03:00:46;;;;;;;9.48;8.57;;;14.60;99.90;;;;;;5063537;28;20033;-38
2022/09/11 03:03:12;;;;;;;7.93;7.20;;;14.50;99.90;;;;;;5064007;28;20032;-37
2022/09/11 03:05:39;;;;;;;10.48;9.48;;;14.50;99.90;;;;;;5063278;28;20535;-38
2022/09/11 03:08:06;;;;;;;12.15;10.85;;;14.50;99.90;;;;;;5062849;28;20055;-38
2022/09/11 03:10:32;;;;;;;10.10;9.10;;;14.40;99.90;;;;;;5064264;28;20503;-38
2022/09/11 03:12:58;;;;;;;11.35;10.30;;;14.40;99.90;;;;;;5063827;28;20028;-38
2022/09/11 03:15:24;;;;;;;10.45;9.45;;;14.30;99.90;;;;;;5063598;28;20036;-38
2022/09/11 03:17:50;;;;;;;17.65;10.43;;;14.30;99.90;;;;;;5064028;28;20095;-38
2022/09/11 03:20:16;;;;;;;12.77;9.20;;;14.20;99.90;;;;;;5063977;28;20566;-37
2022/09/11 03:22:42;;;;;;;10.98;8.40;;;14.30;99.90;;;;;;5063186;28;20039;-37
2022/09/11 03:25:09;;;;;;;16.38;8.63;;;14.30;99.90;;;;;;5063523;28;20032;-38
2022/09/11 03:27:38;;;;;;;14.20;8.40;;;14.30;99.90;;;;;;5063366;28;20491;-36
2022/09/11 03:30:05;;;;;;;7.60;7.00;;;14.30;99.90;;;;;;5062788;28;20033;-38
2022/09/11 03:32:31;;;;;;;10.70;8.40;;;14.30;99.90;;;;;;5063054;28;20051;-38
2022/09/11 03:34:56;;;;;;;9.68;8.77;;;14.30;99.90;;;;;;5063501;28;20028;-38
2022/09/11 03:37:22;;;;;;;12.77;8.35;;;14.30;99.90;;;;;;5063428;28;20031;-39
2022/09/11 03:39:47;;;;;;;8.18;7.38;;;14.40;99.90;;;;;;5063144;28;20530;-37
2022/09/11 03:42:13;;;;;;;11.57;9.15;;;14.30;99.90;;;;;;5065134;28;20594;-39
2022/09/11 03:44:39;;;;;;;10.32;9.32;;;14.30;99.90;;;;;;5066065;28;20036;-38
2022/09/11 03:47:05;;;;;;;9.93;8.93;;;14.30;99.90;;;;;;5066748;28;20081;-37
2022/09/11 03:49:31;;;;;;;14.82;9.07;;;14.30;99.90;;;;;;5066403;28;20463;-39
2022/09/11 03:51:56;;;;;;;11.82;8.25;;;14.30;99.90;;;;;;5066278;28;20752;-37
2022/09/11 03:54:22;;;;;;;9.85;7.80;;;14.30;99.90;;;;;;5066899;28;20031;-38
2022/09/11 03:56:47;;;;;;;18.13;7.85;;;14.40;99.90;;;;;;5065737;28;20544;-38
2022/09/11 03:59:14;;;;;;;16.00;7.60;;;14.40;99.90;;;;;;5066899;28;20054;-40
2022/09/11 04:01:39;;;;;;;14.00;7.47;;;14.30;99.90;;;;;;5066686;28;20038;-38
2022/09/11 04:04:05;;;;;;;18.25;8.25;;;14.30;99.90;;;;;;5067248;28;20039;-38
2022/09/11 04:06:31;;;;;;;14.10;8.10;;;14.20;99.90;;;;;;5065965;28;20035;-38
2022/09/11 04:08:57;;;;;;;17.40;7.05;;;14.20;99.90;;;;;;5066522;28;20050;-38
2022/09/11 04:11:23;;;;;;;11.98;8.40;;;14.20;99.90;;;;;;5066829;28;20029;-38
2022/09/11 04:13:50;;;;;;;13.55;7.50;;;14.10;99.90;;;;;;5066243;28;20021;-38
2022/09/11 04:16:17;;;;;;;9.52;8.60;;;14.10;99.90;;;;;;5067003;28;20515;-38
2022/09/11 04:18:45;;;;;;;7.70;6.43;;;14.10;99.90;;;;;;5066178;28;20079;-37
2022/09/11 04:21:13;;;;;;;8.75;7.30;;;14.10;99.90;;;;;;5066896;28;20020;-39
2022/09/11 04:23:40;;;;;;;10.75;8.18;;;14.10;99.90;;;;;;5066366;28;20029;-38
2022/09/11 04:26:17;;;;;;;9.95;6.90;;;14.10;99.90;;;;;;5066146;28;20551;-37
2022/09/11 04:28:44;;;;;;;7.95;6.85;;;14.10;99.90;;;;;;5066186;28;20094;-38
2022/09/11 04:31:10;;;;;;;11.20;6.43;;;14.10;99.90;;;;;;5066868;28;20059;-39
2022/09/11 04:33:36;;;;;;;6.70;6.00;;;14.10;99.90;;;;;;5065058;28;20029;-38
2022/09/11 04:36:06;;;;;;;9.95;5.32;;;14.10;99.90;;;;;;5066229;28;20032;-39
2022/09/11 04:38:32;;;;;;;11.38;6.30;;;14.10;99.90;;;;;;5066552;28;20013;-37
2022/09/11 04:41:05;;;;;;;10.05;6.05;;;14.00;99.90;;;;;;5065552;28;20570;-37
2022/09/11 04:43:33;;;;;;;9.55;6.97;;;14.00;99.90;;;;;;5065936;28;20456;-38
2022/09/11 04:46:03;;;;;;;5.88;5.18;;;14.00;99.90;;;;;;5066244;28;20480;-36
2022/09/11 04:48:29;;;;;;;7.20;6.47;;;14.00;99.90;;;;;;5064772;28;20017;-37
2022/09/11 04:51:00;;;;;;;9.40;6.90;;;13.90;99.90;;;;;;5066323;28;20337;-37
2022/09/11 04:53:26;;;;;;;10.00;7.57;;;13.90;99.90;;;;;;5065288;28;20027;-38
2022/09/11 04:55:59;;;;;;;21.83;8.35;;;13.90;99.90;;;;;;5065960;28;20080;-37
2022/09/11 04:58:24;;;;;;;10.40;8.07;;;14.00;99.90;;;;;;5066477;28;20110;-39
2022/09/11 05:00:50;;;;;;;9.15;7.03;;;14.00;99.90;;;;;;5065427;28;20025;-37
2022/09/11 05:03:16;;;;;;;8.00;7.20;;;14.00;99.90;;;;;;5066219;28;20074;-39
2022/09/11 05:05:42;;;;;;;7.90;6.35;;;14.00;99.90;;;;;;5065913;28;20027;-38
2022/09/11 05:08:07;;;;;;;7.45;6.75;;;14.00;99.90;;;;;;5065177;28;20029;-37
2022/09/11 05:10:37;;;;;;;8.88;6.35;;;14.00;99.90;;;;;;5065103;28;20040;-37
2022/09/11 05:13:02;;;;;;;7.18;6.28;;;13.90;99.90;;;;;;5066435;28;20372;-38
2022/09/11 05:15:30;;;;;;;6.72;6.13;;;14.00;99.90;;;;;;5064900;28;20107;-39
2022/09/11 05:17:56;;;;;;;5.88;5.28;;;13.90;99.90;;;;;;5065225;28;20025;-40
2022/09/11 05:20:22;;;;;;;5.72;5.22;;;13.90;99.90;;;;;;5065774;28;20395;-38
2022/09/11 05:22:49;;;;;;;5.68;5.13;;;13.90;99.90;;;;;;5063907;28;20029;-38
2022/09/11 05:25:15;;;;;;;4.72;4.32;;;13.90;99.90;;;;;;5065242;28;20480;-38
2022/09/11 05:27:40;;;;;;;5.40;4.78;;;13.90;99.90;;;;;;5065809;28;20032;-38
2022/09/11 05:30:06;;;;;;;5.38;4.88;;;13.90;99.90;;;;;;5064914;28;20480;-38
2022/09/11 05:32:32;;;;;;;5.50;5.00;;;13.80;99.90;;;;;;5065097;28;20035;-37
2022/09/11 05:34:58;;;;;;;5.90;5.40;;;13.80;99.90;;;;;;5064579;28;20025;-37
2022/09/11 05:37:24;;;;;;;6.07;5.50;;;13.80;99.90;;;;;;5064736;28;20400;-37
2022/09/11 05:39:50;;;;;;;6.35;5.75;;;13.70;99.90;;;;;;5064895;28;20016;-37
2022/09/11 05:42:16;;;;;;;6.47;5.88;;;13.80;99.90;;;;;;5065954;28;20090;-38
2022/09/11 05:44:42;;;;;;;6.43;5.82;;;13.70;99.90;;;;;;5065029;28;20066;-38
2022/09/11 05:47:08;;;;;;;5.00;4.60;;;13.80;99.90;;;;;;5064655;28;20051;-40
2022/09/11 05:49:33;;;;;;;5.63;5.05;;;13.80;99.90;;;;;;5064974;28;20036;-37
2022/09/11 05:52:00;;;;;;;5.32;4.82;;;13.80;99.90;;;;;;5064033;28;20082;-37
2022/09/11 05:54:25;;;;;;;4.68;4.28;;;13.80;99.90;;;;;;5065118;28;20032;-38
2022/09/11 05:56:51;;;;;;;4.50;4.10;;;13.80;99.90;;;;;;5064257;28;20553;-38
2022/09/11 05:59:17;;;;;;;5.85;5.00;;;13.80;99.90;;;;;;5065112;28;20032;-38
2022/09/11 06:01:43;;;;;;;5.97;5.40;;;13.80;99.90;;;;;;5064275;28;20124;-38
2022/09/11 06:04:11;;;;;;;6.57;5.97;;;13.80;99.90;;;;;;5064512;28;20083;-38
2022/09/11 06:06:36;;;;;;;6.47;5.78;;;13.90;99.90;;;;;;5064223;28;20043;-39
2022/09/11 06:09:03;;;;;;;6.63;6.03;;;13.90;99.90;;;;;;5064676;28;20464;-37
2022/09/11 06:11:29;;;;;;;6.60;6.00;;;13.90;99.90;;;;;;5063560;28;20395;-38
2022/09/11 06:13:55;;;;;;;6.28;5.68;;;14.00;99.90;;;;;;5064764;28;20024;-37
2022/09/11 06:16:22;;;;;;;6.57;5.72;;;14.00;99.90;;;;;;5064463;28;20131;-39
2022/09/11 06:18:49;;;;;;;6.65;6.03;;;14.10;99.90;;;;;;5063120;28;20418;-37
2022/09/11 06:21:19;;;;;;;6.78;6.00;;;14.10;99.90;;;;;;5064507;28;20016;-37
2022/09/11 06:23:49;;;;;;;7.03;6.35;;;14.10;99.90;;;;;;5064211;28;20118;-38
2022/09/11 06:26:17;;;;;;;7.65;6.95;;;14.10;99.90;;;;;;5063820;28;20031;-37
2022/09/11 06:28:42;;;;;;;6.88;6.18;;;14.20;99.90;;;;;;5063955;28;20046;-38
2022/09/11 06:31:17;;;;;;;10.07;7.30;;;14.20;99.90;;;;;;5064459;28;20028;-38
2022/09/11 06:33:43;;;;;;;7.70;6.90;;;14.30;99.90;;;;;;5063284;28;20028;-38
2022/09/11 06:36:11;;;;;;;8.23;6.65;;;14.30;99.90;;;;;;5063882;28;20055;-36
2022/09/11 06:38:37;;;;;;;6.72;6.03;;;14.30;99.90;;;;;;5060626;28;20035;-38
2022/09/11 06:41:05;;;;;;;7.13;6.43;;;14.40;99.90;;;;;;5063988;28;20025;-36
2022/09/11 06:43:31;;;;;;;6.75;6.15;;;14.40;99.90;;;;;;5064199;28;20145;-38
2022/09/11 06:46:14;;;;;;;6.90;6.20;;;14.50;99.90;;;;;;5064050;28;20035;-38
2022/09/11 06:48:41;;;;;;;7.53;5.97;;;14.50;99.90;;;;;;5063765;28;20583;-37
2022/09/11 06:51:10;;;;;;;6.70;6.03;;;14.60;99.90;;;;;;5064182;28;20491;-37
2022/09/11 06:53:36;;;;;;;6.38;5.78;;;14.60;99.90;;;;;;5062744;28;20037;-38
2022/09/11 06:56:03;;;;;;;6.18;5.57;;;14.60;99.90;;;;;;5062070;28;20385;-38
2022/09/11 06:58:29;;;;;;;6.80;5.85;;;14.70;99.90;;;;;;5062601;28;20013;-38
2022/09/11 07:01:00;;;;;;;8.23;7.03;;;14.70;99.90;;;;;;5062470;28;20028;-37
2022/09/11 07:03:26;;;;;;;8.57;6.80;;;14.70;99.90;;;;;;5063315;28;20342;-38
2022/09/11 07:05:51;;;;;;;7.07;6.18;;;14.80;99.90;;;;;;5062872;28;20533;-37
2022/09/11 07:08:18;;;;;;;11.25;9.63;;;14.80;99.90;;;;;;5062392;28;20020;-38
2022/09/11 07:10:44;;;;;;;9.13;7.50;;;14.90;99.90;;;;;;5062857;28;20380;-38
2022/09/11 07:13:10;;;;;;;10.00;8.77;;;14.90;99.90;;;;;;5063290;28;20379;-38
2022/09/11 07:15:35;;;;;;;12.02;10.10;;;15.00;99.90;;;;;;5062464;28;20031;-38
2022/09/11 07:18:01;;;;;;;9.43;8.30;;;15.00;99.90;;;;;;5066217;28;20142;-38
2022/09/11 07:20:27;;;;;;;8.88;7.85;;;15.10;99.90;;;;;;5067371;28;20527;-38
2022/09/11 07:22:52;;;;;;;8.57;7.68;;;15.10;99.90;;;;;;5066068;28;20115;-38
2022/09/11 07:25:18;;;;;;;9.98;8.60;;;15.20;99.90;;;;;;5067191;28;20028;-38
2022/09/11 07:27:43;;;;;;;11.13;8.50;;;15.20;99.90;;;;;;5067572;28;20028;-39
2022/09/11 07:30:10;;;;;;;10.07;8.18;;;15.30;99.90;;;;;;5066288;28;20029;-38
2022/09/11 07:32:36;;;;;;;8.82;7.93;;;15.40;99.90;;;;;;5067057;28;20150;-39
2022/09/11 07:35:03;;;;;;;9.00;8.07;;;15.40;99.90;;;;;;5066432;28;20023;-38
2022/09/11 07:37:29;;;;;;;12.13;9.73;;;15.50;99.90;;;;;;5066391;28;20138;-45
2022/09/11 07:39:54;;;;;;;9.60;8.60;;;15.50;99.90;;;;;;5066979;28;20120;-37
2022/09/11 07:42:20;;;;;;;11.63;10.43;;;15.60;99.90;;;;;;5067502;28;20078;-38
2022/09/11 07:44:45;;;;;;;12.07;9.85;;;15.70;99.90;;;;;;5065952;28;20063;-38
2022/09/11 07:47:11;;;;;;;11.30;10.10;;;15.80;99.90;;;;;;5066552;28;20392;-37
2022/09/11 07:49:36;;;;;;;12.93;11.60;;;15.90;99.90;;;;;;5066002;28;20352;-38
2022/09/11 07:52:02;;;;;;;13.57;12.15;;;16.00;99.90;;;;;;5066950;28;20028;-37
2022/09/11 07:54:28;;;;;;;13.45;11.30;;;16.00;99.90;;;;;;5066613;28;20453;-37
2022/09/11 07:56:54;;;;;;;12.88;11.50;;;16.10;99.90;;;;;;5066096;28;20459;-40
2022/09/11 07:59:21;;;;;;;13.32;11.93;;;16.20;99.90;;;;;;5066762;28;20103;-39
2022/09/11 08:01:49;;;;;;;17.33;14.10;;;16.30;99.90;;;;;;5055193;28;20111;-38
2022/09/11 08:04:14;;;;;;;13.05;11.75;;;16.40;99.90;;;;;;5066435;28;20060;-38
2022/09/11 08:06:40;;;;;;;14.85;13.23;;;16.40;99.90;;;;;;5066133;28;20450;-38
2022/09/11 08:09:14;;;;;;;13.13;11.65;;;16.50;99.90;;;;;;5066588;28;20028;-39
2022/09/11 08:11:47;;;;;;;11.63;10.43;;;16.60;99.90;;;;;;5065280;28;20021;-37
2022/09/11 08:14:16;;;;;;;12.45;11.18;;;16.70;99.90;;;;;;5066517;28;20033;-39
2022/09/11 08:16:42;;;;;;;13.52;12.15;;;16.70;99.90;;;;;;5066182;28;20036;-38
2022/09/11 08:19:15;;;;;;;12.65;10.80;;;16.80;99.90;;;;;;5066131;28;20123;-39
2022/09/11 08:21:41;;;;;;;10.75;9.65;;;16.90;99.90;;;;;;5065841;28;20106;-38
2022/09/11 08:24:07;;;;;;;13.00;11.63;;;17.00;99.90;;;;;;5066416;28;20078;-38
2022/09/11 08:26:35;;;;;;;11.98;10.77;;;17.10;99.90;;;;;;5065771;28;20023;-38
2022/09/11 08:29:01;;;;;;;12.95;11.50;;;17.10;99.90;;;;;;5045868;28;20021;-39
2022/09/11 08:31:27;;;;;;;12.27;11.07;;;17.10;99.90;;;;;;5059739;28;20028;-38
2022/09/11 08:33:54;;;;;;;11.82;10.63;;;17.10;99.90;;;;;;5065326;28;20086;-38
2022/09/11 08:36:20;;;;;;;10.95;9.85;;;17.10;99.90;;;;;;5066274;28;20028;-38
2022/09/11 08:38:46;;;;;;;12.27;10.27;;;17.10;99.90;;;;;;5064770;28;20476;-39
2022/09/11 08:41:40;;;;;;;12.02;10.88;;;17.20;99.90;;;;;;5065601;28;20021;-40
2022/09/11 08:44:08;;;;;;;11.68;10.25;;;17.20;99.90;;;;;;5065712;28;20480;-38
2022/09/11 08:46:44;;;;;;;12.13;10.93;;;17.30;99.90;;;;;;5065087;28;20024;-38
2022/09/11 08:49:18;;;;;;;9.95;8.95;;;17.40;99.90;;;;;;5066129;28;20036;-38
2022/09/11 08:51:46;;;;;;;8.55;7.72;;;17.40;99.90;;;;;;5064812;28;20451;-38
2022/09/11 08:54:33;;;;;;;10.63;9.57;;;17.50;99.90;;;;;;5064974;28;20098;-38
2022/09/11 08:57:20;;;;;;;11.20;9.80;;;17.50;99.90;;;;;;5064537;28;20288;-37
2022/09/11 09:00:13;;;;;;;10.13;9.15;;;17.60;99.90;;;;;;5064250;28;20399;-40
2022/09/11 09:02:49;;;;;;;11.00;9.90;;;17.70;99.90;;;;;;5064951;28;20395;-38
2022/09/11 09:05:53;;;;;;;11.00;9.90;;;17.70;99.90;;;;;;5045742;28;20044;-38
2022/09/11 09:08:40;;;;;;;11.57;10.38;;;17.80;99.90;;;;;;5064305;28;20017;-38
2022/09/11 09:11:16;;;;;;;11.82;10.73;;;17.90;99.90;;;;;;5064951;28;20040;-38
2022/09/11 09:14:19;;;;;;;11.15;10.05;;;18.20;99.90;;;;;;5064233;28;20035;-40
2022/09/11 09:17:01;;;;;;;;;;;18.40;99.90;;;;;;5064594;28;20028;-37
2022/09/11 09:19:51;;;;;;;10.55;9.55;;;18.50;99.90;;;;;;5054535;28;19916;-38
2022/09/11 09:22:30;;;;;;;10.38;9.38;;;18.70;99.90;;;;;;5064429;28;20526;-39
2022/09/11 09:25:00;;;;;;;12.45;11.25;;;19.00;99.90;;;;;;5064524;28;20024;-38
2022/09/11 09:27:34;;;;;;;13.40;12.00;;;19.10;99.90;;;;;;5064963;28;20483;-38
2022/09/11 09:30:04;;;;;;;13.20;11.80;;;19.20;99.90;;;;;;5064205;28;20395;-39
2022/09/11 09:32:38;;;;;;;11.63;10.52;;;19.20;99.90;;;;;;5064694;28;20013;-38
2022/09/11 09:35:14;;;;;;;12.55;11.25;;;19.30;99.90;;;;;;5064338;28;20031;-38
2022/09/11 09:37:40;;;;;;;12.50;11.27;;;19.40;99.90;;;;;;5064318;28;20031;-38
2022/09/11 09:40:09;;;;;;;9.15;8.25;;;19.40;99.90;;;;;;5064331;28;20028;-39
2022/09/11 09:42:47;;;;;;;7.75;7.05;;;19.30;99.90;;;;;;5064053;28;20017;-38
2022/09/11 09:45:38;;;;;;;8.10;7.18;;;19.20;99.90;;;;;;5064015;28;20373;-38
2022/09/11 09:48:07;;;;;;;8.85;8.02;;;19.00;99.90;;;;;;5064675;28;20024;-40
2022/09/11 09:50:38;;;;;;;8.35;7.55;;;18.90;99.90;;;;;;5064401;28;20032;-37
2022/09/11 09:53:33;;;;;;;8.55;7.75;;;18.80;99.90;;;;;;5064905;28;20415;-37
2022/09/11 09:55:59;;;;;;;7.88;7.07;;;18.70;99.90;;;;;;5056068;28;20056;-37
2022/09/11 09:58:35;;;;;;;6.65;5.95;;;18.70;99.90;;;;;;5063873;28;20043;-37
2022/09/11 10:01:01;;;;;;;5.80;4.90;;;18.60;99.90;;;;;;5065046;28;20464;-42
2022/09/11 10:03:26;;;;;;;5.70;5.10;;;18.70;99.90;;;;;;5063391;28;20468;-38
2022/09/11 10:05:54;;;;;;;6.38;5.78;;;18.70;99.90;;;;;;5064863;28;20531;-38
2022/09/11 10:08:24;;;;;;;8.20;7.32;;;18.80;99.90;;;;;;5065383;28;20028;-38
2022/09/11 10:11:26;;;;;;;10.40;9.30;;;18.80;99.90;;;;;;5063836;28;20112;-38
2022/09/11 10:13:54;;;;;;;8.27;7.38;;;19.00;99.90;;;;;;5063350;28;20813;-37
2022/09/11 10:16:25;;;;;;;6.72;6.13;;;19.20;99.90;;;;;;5061124;28;20055;-39
2022/09/11 10:18:53;;;;;;;4.45;4.05;;;19.30;99.90;;;;;;5063648;28;20017;-39
2022/09/11 10:21:21;;;;;;;5.78;5.28;;;19.50;99.90;;;;;;5065253;28;20025;-38
2022/09/11 10:23:55;;;;;;;6.60;6.00;;;19.70;99.90;;;;;;5064522;28;20327;-38
2022/09/11 10:26:30;;;;;;;5.85;5.20;;;19.90;99.90;;;;;;5064485;28;20111;-37
2022/09/11 10:29:13;;;;;;;5.88;5.13;;;20.00;99.90;;;;;;5064277;28;20476;-38
2022/09/11 10:31:46;;;;;;;4.70;4.30;;;20.10;99.90;;;;;;5062344;28;20043;-37
2022/09/11 10:34:19;;;;;;;4.90;4.18;;;20.20;99.90;;;;;;5064249;28;20028;-39
2022/09/11 10:36:54;;;;;;;3.92;3.53;;;20.30;99.90;;;;;;5063952;28;20036;-39
2022/09/11 10:39:21;;;;;;;3.78;3.17;;;20.40;99.90;;;;;;5062035;28;20024;-38
2022/09/11 10:41:50;;;;;;;3.00;2.75;;;20.50;99.90;;;;;;5064279;28;20040;-38
2022/09/11 10:44:16;;;;;;;3.70;3.40;;;20.50;99.90;;;;;;5064704;28;20457;-37
2022/09/11 10:46:45;;;;;;;2.80;2.60;;;20.60;99.90;;;;;;5063584;28;20029;-38
2022/09/11 10:49:20;;;;;;;3.75;3.30;;;20.70;99.90;;;;;;5065208;28;20032;-39
2022/09/11 10:51:57;;;;;;;7.40;6.70;;;20.80;99.90;;;;;;5064641;28;20036;-38
2022/09/11 10:54:38;;;;;;;7.60;6.85;;;20.70;99.90;;;;;;5068532;28;20102;-37
2022/09/11 10:57:40;;;;;;;7.35;6.75;;;20.60;99.90;;;;;;5067671;28;20067;-37
2022/09/11 11:00:23;;;;;;;7.45;6.55;;;20.60;99.90;;;;;;5067726;28;20120;-38
2022/09/11 11:02:51;;;;;;;6.78;6.18;;;20.50;99.90;;;;;;5067716;28;20534;-37
2022/09/11 11:05:31;;;;;;;6.97;6.38;;;20.40;99.90;;;;;;5068554;28;20530;-39
2022/09/11 11:08:21;;;;;;;6.78;6.18;;;20.40;99.90;;;;;;5067147;28;20388;-42
2022/09/11 11:11:18;;;;;;;6.05;5.50;;;20.40;99.90;;;;;;5067442;28;20549;-39
2022/09/11 11:14:17;;;;;;;5.70;5.10;;;20.40;99.90;;;;;;5067305;28;20028;-38
2022/09/11 11:17:12;;;;;;;5.03;4.63;;;20.40;99.90;;;;;;5067414;28;20043;-37
2022/09/11 11:20:06;;;;;;;4.93;4.45;;;20.50;99.90;;;;;;5068062;28;20089;-38
2022/09/11 11:22:40;;;;;;;4.55;4.15;;;20.60;99.90;;;;;;5066788;28;20074;-39
2022/09/11 11:25:20;;;;;;;5.85;5.25;;;20.70;99.90;;;;;;5067683;28;20528;-40
2022/09/11 11:27:51;;;;;;;8.20;5.90;;;20.80;99.90;;;;;;5066465;28;20035;-40
2022/09/11 11:30:32;;;;;;;6.40;5.80;;;20.90;99.90;;;;;;5067811;28;20483;-37
2022/09/11 11:33:30;;;;;;;6.90;6.30;;;21.00;99.90;;;;;;5067056;28;20036;-38
2022/09/11 11:36:07;;;;;;;6.95;6.35;;;21.10;99.90;;;;;;5066786;28;20035;-40
2022/09/11 11:38:42;;;;;;;8.23;7.53;;;21.20;99.90;;;;;;5067205;28;20594;-40
2022/09/11 11:41:17;;;;;;;7.15;6.45;;;21.20;99.90;;;;;;5067142;28;20070;-40
2022/09/11 11:43:47;;;;;;;5.82;5.32;;;21.30;99.90;;;;;;5066215;28;20020;-40
2022/09/11 11:46:17;;;;;;;6.03;5.43;;;21.20;99.90;;;;;;5065936;28;20111;-38
2022/09/11 11:48:57;;;;;;;6.32;5.72;;;21.30;99.90;;;;;;5066683;28;20008;-47
2022/09/11 11:51:28;;;;;;;7.10;6.40;;;21.40;99.90;;;;;;5067273;28;20028;-37
2022/09/11 11:54:16;;;;;;;5.88;5.38;;;21.50;99.90;;;;;;5061983;28;20029;-37
2022/09/11 11:56:53;;;;;;;8.43;7.47;;;21.50;99.90;;;;;;5047051;28;20504;-38
2022/09/11 11:59:34;;;;;;;7.35;6.50;;;21.50;99.90;;;;;;5067531;28;20064;-39
2022/09/11 12:02:08;;;;;;;7.60;5.47;;;21.50;99.90;;;;;;5066976;28;20232;-39
2022/09/11 12:04:36;;;;;;;6.18;5.68;;;21.50;99.90;;;;;;5062407;28;20544;-38
2022/09/11 12:07:03;;;;;;;5.03;4.63;;;21.50;99.90;;;;;;5067323;28;20073;-39
2022/09/11 12:09:30;;;;;;;5.53;4.85;;;21.50;99.90;;;;;;5065960;28;20047;-37
2022/09/11 12:12:02;;;;;;;5.03;4.53;;;21.50;99.90;;;;;;5066501;28;20472;-37
2022/09/11 12:14:32;;;;;;;;;;;21.50;99.90;;;;;;5067026;28;20036;-39
2022/09/11 12:17:16;;;;;;;4.53;3.75;;;21.50;99.90;;;;;;5066268;28;19915;-38
2022/09/11 12:20:10;;;;;;;4.53;4.22;;;21.50;99.90;;;;;;5066543;28;20128;-39
2022/09/11 12:22:38;;;;;;;4.75;4.18;;;21.50;99.90;;;;;;5063350;28;20065;-38
2022/09/11 12:25:22;;;;;;;4.22;3.83;;;21.50;99.90;;;;;;5059482;28;20115;-38
2022/09/11 12:27:54;;;;;;;5.22;4.40;;;21.50;99.90;;;;;;5061446;28;20024;-39
2022/09/11 12:30:26;;;;;;;4.78;4.28;;;21.50;99.90;;;;;;5067151;28;20075;-38
2022/09/11 12:32:53;;;;;;;3.65;3.33;;;21.60;99.90;;;;;;5065740;28;20361;-39
2022/09/11 12:35:42;;;;;;;4.07;3.67;;;21.60;99.90;;;;;;5059305;28;20566;-38
2022/09/11 12:38:14;;;;;;;3.80;3.50;;;21.70;99.90;;;;;;5065814;28;20036;-38
2022/09/11 12:40:48;;;;;;;3.70;3.40;;;21.80;99.90;;;;;;5066481;28;20043;-37
2022/09/11 12:43:26;;;;;;;6.07;3.67;;;21.90;99.90;;;;;;5062823;28;20032;-37
2022/09/11 12:45:51;;;;;;;4.20;3.20;;;21.90;99.90;;;;;;5060854;28;20380;-37
2022/09/11 12:48:24;;;;;;;4.38;4.05;;;22.00;99.90;;;;;;5066787;28;20502;-42
2022/09/11 12:50:54;;;;;;;5.57;4.95;;;22.00;99.90;;;;;;5065873;28;20226;-38
2022/09/11 12:53:45;;;;;;;5.50;5.00;;;22.10;99.90;;;;;;5064759;28;20502;-38
2022/09/11 12:56:18;;;;;;;5.32;4.45;;;22.10;99.90;;;;;;5065434;28;20043;-37
2022/09/11 12:58:46;;;;;;;4.35;3.90;;;22.00;99.90;;;;;;5065800;28;20330;-38
2022/09/11 13:01:27;;;;;;;4.57;3.72;;;22.10;99.90;;;;;;5065474;28;20622;-38
2022/09/11 13:04:08;;;;;;;5.22;4.70;;;22.10;99.90;;;;;;5066125;28;20024;-38
2022/09/11 13:06:49;;;;;;;5.28;4.68;;;22.30;99.90;;;;;;5064596;28;20024;-38